Time;durP1;ratioP1;P1;durP2;ratioP2;P2;SDS_P1;SDS_P2;PMS_P1;PMS_P2;Temp;Humidity;BMP_temperature;BMP_pressure;BME280_temperature;BME280_humidity;BME280_pressure;Samples;Min_cycle;Max_cycle;Signal;HPM_P1;HPM_P2
2022/07/31 00:00:19;;;;;;;5.50;2.70;;;;;;;31.63;31.87;101858.25;5096185;28;20489;-76
2022/07/31 00:02:45;;;;;;;6.13;3.40;;;;;;;31.75;31.47;101856.34;5113951;28;20023;-76
2022/07/31 00:05:11;;;;;;;6.40;2.70;;;;;;;31.69;31.34;101851.47;5096101;28;20023;-76
2022/07/31 00:07:36;;;;;;;4.20;2.80;;;;;;;31.86;31.65;101842.81;5096079;28;20108;-76
2022/07/31 00:10:03;;;;;;;6.80;3.10;;;;;;;31.91;31.39;101835.13;5095049;28;20019;-76
2022/07/31 00:12:29;;;;;;;3.15;2.80;;;;;;;32.18;31.28;101831.09;5095752;28;20534;-76
2022/07/31 00:14:54;;;;;;;3.70;2.80;;;;;;;31.65;32.27;101839.22;5114124;28;20106;-76
2022/07/31 00:17:20;;;;;;;4.00;2.80;;;;;;;31.75;32.05;101829.31;5095288;28;20026;-76
2022/07/31 00:19:45;;;;;;;8.38;3.63;;;;;;;31.77;31.32;101828.22;5095857;28;20387;-76
2022/07/31 00:22:12;;;;;;;5.00;3.30;;;;;;;31.59;32.15;101818.97;5095514;28;20028;-76
2022/07/31 00:24:37;;;;;;;9.18;2.83;;;;;;;31.54;32.44;101822.03;5095137;28;20038;-76
2022/07/31 00:27:03;;;;;;;4.50;2.70;;;;;;;31.62;32.56;101816.00;5095550;28;20023;-76
2022/07/31 00:29:29;;;;;;;5.28;3.00;;;;;;;31.68;32.29;101811.94;5095421;28;20023;-76
2022/07/31 00:31:55;;;;;;;3.83;2.65;;;;;;;31.66;32.43;101809.34;5095151;28;20042;-76
2022/07/31 00:34:21;;;;;;;5.40;3.13;;;;;;;31.92;31.63;101808.97;5095540;28;20020;-76
2022/07/31 00:36:46;;;;;;;4.28;2.95;;;;;;;32.15;31.06;101809.72;5094923;28;20023;-76
2022/07/31 00:39:12;;;;;;;8.43;3.67;;;;;;;31.66;31.58;101813.91;5113664;28;20382;-76
2022/07/31 00:41:44;;;;;;;5.38;3.60;;;;;;;32.12;31.35;101807.25;5095075;28;20154;-76
2022/07/31 00:44:10;;;;;;;7.13;3.25;;;;;;;31.78;31.64;101807.47;5093775;28;20059;-76
2022/07/31 00:46:36;;;;;;;5.18;3.17;;;;;;;31.54;31.94;101800.41;5095382;28;20028;-76
2022/07/31 00:49:02;;;;;;;7.93;3.33;;;;;;;31.21;32.45;101794.16;5095562;28;20498;-76
2022/07/31 00:51:28;;;;;;;6.03;3.10;;;;;;;31.22;32.33;101803.13;5113042;28;20027;-76
2022/07/31 00:53:53;;;;;;;7.25;3.58;;;;;;;30.98;33.37;101803.25;5095116;28;20080;-76
2022/07/31 00:56:18;;;;;;;4.85;3.15;;;;;;;31.48;32.46;101790.13;5095137;28;20019;-76
2022/07/31 00:58:44;;;;;;;3.88;2.95;;;;;;;31.80;32.38;101794.66;5094643;28;20033;-76
2022/07/31 01:01:09;;;;;;;4.13;2.70;;;;;;;32.02;32.44;101792.81;5095158;28;20035;-76
2022/07/31 01:03:35;;;;;;;7.18;2.85;;;;;;;31.22;33.36;101790.47;5113303;28;20028;-76
2022/07/31 01:06:00;;;;;;;5.40;3.00;;;;;;;31.65;33.25;101785.19;5094520;28;20045;-76
2022/07/31 01:08:25;;;;;;;4.03;2.90;;;;;;;31.94;32.80;101782.66;5094822;28;20115;-76
2022/07/31 01:11:19;;;;;;;5.75;2.78;;;;;;;31.75;33.18;101775.28;5094832;28;20019;-76
2022/07/31 01:13:49;;;;;;;6.18;2.80;;;;;;;30.92;35.25;101775.78;5094110;28;20027;-76
2022/07/31 01:16:17;;;;;;;5.68;2.83;;;;;;;31.10;35.06;101778.00;5094955;28;20027;-76
2022/07/31 01:18:43;;;;;;;5.47;3.10;;;;;;;31.34;34.91;101774.22;5094396;28;20458;-77
2022/07/31 01:21:15;;;;;;;7.72;2.97;;;;;;;30.50;36.73;101783.72;5112657;28;20020;-76
2022/07/31 01:24:11;;;;;;;7.28;2.75;;;;;;;30.69;36.48;101782.22;5094524;28;20502;-76
2022/07/31 01:26:50;;;;;;;6.03;2.92;;;;;;;31.13;35.95;101780.44;5094080;28;20027;-76
2022/07/31 01:29:23;;;;;;;4.20;3.38;;;;;;;30.95;36.52;101791.75;5112770;28;20034;-76
2022/07/31 01:32:01;;;;;;;9.45;3.20;;;;;;;31.76;35.06;101782.41;5094447;28;20459;-76
2022/07/31 01:34:31;;;;;;;6.20;2.97;;;;;;;31.91;34.59;101786.47;5111963;28;20043;-76
2022/07/31 01:37:19;;;;;;;10.63;3.05;;;;;;;31.01;36.74;101787.69;5094586;28;20027;-76
2022/07/31 01:39:51;;;;;;;8.57;3.55;;;;;;;31.30;36.32;101777.19;5112370;28;20051;-76
2022/07/31 01:42:19;;;;;;;6.20;2.80;;;;;;;31.00;37.05;101777.03;5094294;28;20479;-76
2022/07/31 01:44:50;;;;;;;5.78;2.90;;;;;;;30.85;37.33;101777.28;5094403;28;20023;-76
2022/07/31 01:47:19;;;;;;;7.50;3.25;;;;;;;31.13;37.13;101780.44;5111656;28;20515;-76
2022/07/31 01:49:47;;;;;;;5.70;2.67;;;;;;;29.84;39.46;101781.63;5094288;28;20487;-76
2022/07/31 01:52:14;;;;;;;5.13;3.10;;;;;;;30.19;38.95;101775.31;5112482;28;20015;-75
2022/07/31 01:54:40;;;;;;;8.05;3.65;;;;;;;29.43;40.87;101767.63;5093133;28;20030;-76
2022/07/31 01:57:07;;;;;;;8.40;3.00;;;;;;;30.51;38.62;101774.63;5118590;28;20019;-76
2022/07/31 01:59:34;;;;;;;6.53;3.05;;;;;;;30.11;39.33;101766.97;5100995;28;20062;-76
2022/07/31 02:02:03;;;;;;;8.23;3.05;;;;;;;29.39;40.51;101776.06;5100109;28;20035;-76
2022/07/31 02:04:29;;;;;;;7.28;3.42;;;;;;;30.24;39.05;101765.03;5100894;28;20035;-76
2022/07/31 02:06:55;;;;;;;8.52;3.78;;;;;;;30.62;37.94;101774.63;5118584;28;20031;-76
2022/07/31 02:09:23;;;;;;;6.22;3.20;;;;;;;30.34;38.76;101767.00;5118492;28;20539;-76
2022/07/31 02:11:49;;;;;;;7.55;3.55;;;;;;;31.10;37.34;101765.34;5101007;28;20037;-76
2022/07/31 02:14:18;;;;;;;10.27;3.30;;;;;;;30.42;38.33;101751.06;5100778;28;20020;-76
2022/07/31 02:16:45;;;;;;;11.30;3.40;;;;;;;29.80;39.42;101753.19;5099955;28;20023;-76
2022/07/31 02:19:13;;;;;;;6.00;3.38;;;;;;;29.83;40.04;101746.69;5100932;28;20030;-76
2022/07/31 02:21:39;;;;;;;9.27;3.70;;;;;;;30.87;37.58;101736.69;5100527;28;20528;-76
2022/07/31 02:24:05;;;;;;;9.77;3.25;;;;;;;30.78;37.58;101725.66;5099732;28;20055;-76
2022/07/31 02:26:32;;;;;;;8.32;3.22;;;;;;;30.90;37.36;101731.91;5119041;28;20490;-76
2022/07/31 02:28:58;;;;;;;6.80;3.55;;;;;;;31.28;36.92;101722.47;5100659;28;20378;-76
2022/07/31 02:31:24;;;;;;;6.95;4.22;;;;;;;31.19;37.10;101741.25;5100054;28;20058;-76
2022/07/31 02:33:51;;;;;;;6.07;4.00;;;;;;;30.87;37.73;101732.16;5100697;28;20042;-76
2022/07/31 02:36:20;;;;;;;9.65;4.15;;;;;;;30.91;37.58;101732.75;5099735;28;20020;-75
2022/07/31 02:38:47;;;;;;;7.15;3.83;;;;;;;30.47;37.97;101732.69;5100709;28;20041;-76
2022/07/31 02:41:14;;;;;;;8.63;3.80;;;;;;;30.20;38.82;101733.91;5119075;28;20028;-76
2022/07/31 02:43:41;;;;;;;5.43;3.55;;;;;;;30.57;38.20;101720.19;5099813;28;20051;-76
2022/07/31 02:46:11;;;;;;;11.20;3.72;;;;;;;30.86;38.14;101711.53;5118803;28;20030;-76
2022/07/31 02:48:37;;;;;;;6.78;4.15;;;;;;;31.06;37.73;101719.84;5100716;28;20024;-76
2022/07/31 02:51:04;;;;;;;7.63;4.53;;;;;;;30.42;38.70;101724.09;5117997;28;20442;-76
2022/07/31 02:53:29;;;;;;;7.57;4.35;;;;;;;31.30;37.11;101717.78;5100630;28;20020;-76
2022/07/31 02:55:55;;;;;;;10.60;4.38;;;;;;;30.13;38.92;101732.69;5100378;28;20020;-76
2022/07/31 02:58:21;;;;;;;6.28;4.35;;;;;;;30.28;39.29;101730.59;5099732;28;20113;-76
2022/07/31 03:00:46;;;;;;;7.53;4.53;;;;;;;29.46;41.01;101728.84;5100534;28;20019;-76
2022/07/31 03:03:11;;;;;;;8.88;4.63;;;;;;;28.99;42.35;101727.88;5100243;28;20023;-76
2022/07/31 03:05:37;;;;;;;9.68;4.80;;;;;;;30.56;38.71;101712.22;5099855;28;20033;-76
2022/07/31 03:08:03;;;;;;;8.73;4.60;;;;;;;30.12;39.87;101715.66;5096952;28;20016;-76
2022/07/31 03:10:28;;;;;;;7.28;4.60;;;;;;;30.80;38.29;101706.63;5115403;28;20418;-76
2022/07/31 03:12:54;;;;;;;12.23;4.80;;;;;;;30.60;38.91;101698.34;5096337;28;20023;-76
2022/07/31 03:15:22;;;;;;;8.40;4.70;;;;;;;30.76;38.39;101703.34;5096870;28;20027;-76
2022/07/31 03:17:49;;;;;;;6.47;4.57;;;;;;;30.62;38.65;101701.81;5096722;28;20055;-76
2022/07/31 03:20:15;;;;;;;7.57;4.03;;;;;;;30.61;38.74;101702.78;5096315;28;20027;-76
2022/07/31 03:22:41;;;;;;;7.00;4.15;;;;;;;30.82;38.21;101702.00;5096564;28;20024;-76
2022/07/31 03:25:08;;;;;;;9.18;4.43;;;;;;;31.04;37.39;101700.25;5115198;28;20379;-76
2022/07/31 03:27:34;;;;;;;8.32;3.75;;;;;;;30.57;38.64;101704.00;5114580;28;20027;-76
2022/07/31 03:29:59;;;;;;;4.78;3.40;;;;;;;30.52;38.00;101706.22;5115088;28;20054;-76
2022/07/31 03:32:24;;;;;;;5.90;3.45;;;;;;;31.19;36.92;101707.03;5114482;28;20020;-76
2022/07/31 03:34:50;;;;;;;6.95;3.65;;;;;;;30.90;37.60;101710.31;5096639;28;20027;-76
2022/07/31 03:37:15;;;;;;;10.85;4.72;;;;;;;30.78;37.75;101714.88;5096690;28;20028;-76
2022/07/31 03:39:40;;;;;;;6.43;3.72;;;;;;;31.27;37.02;101706.38;5096082;28;20031;-76
2022/07/31 03:42:08;;;;;;;5.43;3.40;;;;;;;30.99;37.49;101711.38;5096526;28;20020;-76
2022/07/31 03:44:34;;;;;;;7.00;3.42;;;;;;;30.98;37.41;101711.50;5096410;28;20051;-76
2022/07/31 03:47:01;;;;;;;10.00;3.97;;;;;;;30.71;38.08;101710.13;5095772;28;20027;-77
2022/07/31 03:49:26;;;;;;;7.72;3.15;;;;;;;29.72;39.97;101712.53;5096580;28;20024;-76
2022/07/31 03:51:53;;;;;;;5.28;3.63;;;;;;;29.13;40.87;101716.06;5096814;28;20056;-76
2022/07/31 03:54:19;;;;;;;6.32;3.75;;;;;;;28.90;41.37;101711.44;5095653;28;20147;-77
2022/07/31 03:56:47;;;;;;;4.65;3.45;;;;;;;29.75;39.74;101706.88;5114666;28;20049;-77
2022/07/31 03:59:14;;;;;;;7.05;3.83;;;;;;;28.60;41.93;101710.03;5114628;28;20098;-77
2022/07/31 04:01:40;;;;;;;9.95;3.90;;;;;;;28.71;41.65;101711.09;5113878;28;20031;-77
2022/07/31 04:04:06;;;;;;;6.05;3.65;;;;;;;29.00;41.26;101708.06;5114587;28;20023;-77
2022/07/31 04:06:31;;;;;;;8.50;4.45;;;;;;;28.64;41.99;101699.06;5096273;28;20019;-77
2022/07/31 04:09:00;;;;;;;6.38;4.20;;;;;;;27.97;42.95;101706.41;5095446;28;20072;-77
2022/07/31 04:11:26;;;;;;;10.80;4.38;;;;;;;28.37;42.71;101705.44;5096568;28;20428;-77
2022/07/31 04:13:52;;;;;;;7.35;4.43;;;;;;;29.17;41.05;101694.22;5096246;28;20023;-77
2022/07/31 04:16:17;;;;;;;4.95;3.65;;;;;;;28.79;41.54;101689.84;5113451;28;20023;-77
2022/07/31 04:18:43;;;;;;;6.00;4.60;;;;;;;28.60;41.61;101693.00;5114154;28;20475;-77
2022/07/31 04:21:08;;;;;;;9.75;5.45;;;;;;;28.58;42.30;101695.81;5113963;28;20106;-77
2022/07/31 04:23:34;;;;;;;8.18;5.20;;;;;;;28.80;42.45;101688.91;5113525;28;20024;-77
2022/07/31 04:25:59;;;;;;;10.55;5.20;;;;;;;30.03;39.45;101691.25;5095880;28;20439;-77
2022/07/31 04:28:25;;;;;;;9.10;5.20;;;;;;;28.30;42.94;101690.72;5095961;28;20177;-77
2022/07/31 04:30:50;;;;;;;11.07;5.95;;;;;;;27.07;45.91;101690.16;5113889;28;20487;-77
2022/07/31 04:33:16;;;;;;;9.98;6.20;;;;;;;28.88;42.23;101681.13;5114189;28;20139;-77
2022/07/31 04:35:42;;;;;;;8.70;5.78;;;;;;;28.39;43.77;101684.69;5095066;28;20051;-77
2022/07/31 04:38:07;;;;;;;12.25;6.32;;;;;;;28.88;42.43;101681.13;5095670;28;20383;-77
2022/07/31 04:40:33;;;;;;;12.57;7.15;;;;;;;27.95;44.15;101686.88;5095730;28;20024;-77
2022/07/31 04:42:58;;;;;;;11.45;6.53;;;;;;;28.97;42.49;101676.88;5112736;28;20047;-77
2022/07/31 04:45:23;;;;;;;15.40;6.32;;;;;;;29.09;41.98;101680.47;5095512;28;20031;-77
2022/07/31 04:47:49;;;;;;;12.38;6.88;;;;;;;28.06;44.18;101683.47;5095354;28;20023;-77
2022/07/31 04:50:14;;;;;;;10.32;6.20;;;;;;;29.21;42.51;101684.03;5113068;28;20027;-77
2022/07/31 04:52:40;;;;;;;12.45;7.07;;;;;;;29.37;41.93;101684.63;5095491;28;20175;-77
2022/07/31 04:55:05;;;;;;;15.32;6.75;;;;;;;28.82;43.29;101681.56;5095107;28;20054;-77
2022/07/31 04:57:31;;;;;;;13.65;6.90;;;;;;;29.24;42.04;101683.84;5094636;28;20036;-77
2022/07/31 04:59:56;;;;;;;14.32;7.90;;;;;;;28.09;45.43;101675.16;5094947;28;20386;-77
2022/07/31 05:02:21;;;;;;;17.10;8.35;;;;;;;29.45;42.12;101678.66;5094929;28;20077;-77
2022/07/31 05:04:47;;;;;;;15.30;7.68;;;;;;;29.76;41.55;101674.44;5112892;28;20030;-77
2022/07/31 05:07:12;;;;;;;14.75;7.65;;;;;;;29.25;42.69;101689.13;5095178;28;20031;-77
2022/07/31 05:09:37;;;;;;;19.92;7.90;;;;;;;29.03;43.04;101679.09;5095033;28;20032;-77
2022/07/31 05:12:03;;;;;;;15.00;8.60;;;;;;;28.24;44.97;101676.75;5094330;28;20025;-77
2022/07/31 05:14:29;;;;;;;15.63;8.25;;;;;;;28.85;43.39;101675.97;5094992;28;20387;-77
2022/07/31 05:16:54;;;;;;;17.80;8.32;;;;;;;29.56;42.66;101678.69;5112859;28;20535;-77
2022/07/31 05:19:19;;;;;;;17.77;8.95;;;;;;;29.14;43.63;101678.31;5094159;28;20031;-77
2022/07/31 05:21:45;;;;;;;18.42;8.77;;;;;;;29.24;43.89;101682.03;5094690;28;20391;-76
2022/07/31 05:24:10;;;;;;;16.70;8.50;;;;;;;28.63;44.59;101676.69;5094795;28;20027;-77
2022/07/31 05:26:37;;;;;;;23.33;9.88;;;;;;;28.48;45.49;101678.66;5094154;28;20459;-77
2022/07/31 05:29:03;;;;;;;19.33;9.68;;;;;;;28.16;46.81;101676.44;5112814;28;20030;-77
2022/07/31 05:31:28;;;;;;;23.92;10.75;;;;;;;27.89;47.49;101681.91;5094094;28;20024;-77
2022/07/31 05:33:54;;;;;;;21.58;10.52;;;;;;;28.70;45.80;101679.78;5093978;28;20023;-77
2022/07/31 05:36:20;;;;;;;23.83;10.43;;;;;;;28.67;45.71;101677.31;5112811;28;20106;-78
2022/07/31 05:38:46;;;;;;;25.80;10.48;;;;;;;28.84;45.03;101668.88;5094566;28;20027;-77
2022/07/31 05:41:12;;;;;;;25.95;11.57;;;;;;;29.03;44.85;101679.09;5093767;28;20034;-77
2022/07/31 05:43:38;;;;;;;20.05;9.82;;;;;;;29.01;45.22;101669.44;5093905;28;20051;-77
2022/07/31 05:46:05;;;;;;;24.48;11.48;;;;;;;28.50;45.83;101682.06;5112098;28;20032;-77
2022/07/31 05:48:30;;;;;;;23.63;10.85;;;;;;;28.74;45.94;101684.84;5094448;28;20068;-77
2022/07/31 05:50:56;;;;;;;28.40;11.43;;;;;;;28.89;45.93;101672.06;5094631;28;20031;-77
2022/07/31 05:53:21;;;;;;;22.42;10.60;;;;;;;29.37;44.66;101681.09;5093695;28;20015;-77
2022/07/31 05:55:48;;;;;;;22.17;11.27;;;;;;;28.44;47.00;101667.25;5112465;28;20107;-77
2022/07/31 05:58:16;;;;;;;25.52;11.95;;;;;;;28.59;46.74;101669.78;5094314;28;20058;-77
2022/07/31 06:00:42;;;;;;;20.50;10.95;;;;;;;28.78;46.65;101663.94;5111758;28;20028;-77
2022/07/31 06:03:07;;;;;;;30.08;13.52;;;;;;;29.63;44.40;101667.44;5094211;28;20020;-77
2022/07/31 06:05:33;;;;;;;28.00;12.68;;;;;;;28.43;47.43;101659.31;5094343;28;20110;-78
2022/07/31 06:07:59;;;;;;;28.45;12.68;;;;;;;27.79;49.27;101660.22;5111789;28;20028;-77
2022/07/31 06:10:25;;;;;;;32.78;13.05;;;;;;;28.59;47.42;101667.97;5094241;28;20016;-77
2022/07/31 06:12:50;;;;;;;24.40;12.43;;;;;;;29.45;44.95;101667.88;5094233;28;20095;-77
2022/07/31 06:15:16;;;;;;;28.65;12.85;;;;;;;29.20;45.73;101674.28;5111868;28;20027;-78
2022/07/31 06:17:42;;;;;;;27.00;12.75;;;;;;;29.22;45.46;101673.19;5094276;28;20429;-77
2022/07/31 06:20:08;;;;;;;24.85;11.93;;;;;;;29.05;46.39;101670.91;5094068;28;20030;-77
2022/07/31 06:22:34;;;;;;;23.67;11.57;;;;;;;29.19;45.84;101683.31;5093435;28;20016;-77
2022/07/31 06:25:00;;;;;;;28.38;13.90;;;;;;;28.07;49.10;101682.50;5094097;28;20027;-77
2022/07/31 06:27:25;;;;;;;28.65;13.82;;;;;;;29.45;45.28;101690.28;5093853;28;20062;-78
2022/07/31 06:29:51;;;;;;;29.50;14.32;;;;;;;28.74;47.15;101678.56;5093396;28;20055;-76
2022/07/31 06:32:17;;;;;;;28.65;13.40;;;;;;;29.13;45.96;101679.25;5112463;28;20094;-77
2022/07/31 06:34:43;;;;;;;22.05;13.00;;;;;;;29.25;46.28;101672.09;5093990;28;20490;-77
2022/07/31 06:37:09;;;;;;;26.08;13.48;;;;;;;29.83;43.98;101666.75;5093458;28;20475;-78
2022/07/31 06:39:34;;;;;;;27.67;13.57;;;;;;;29.51;44.69;101675.50;5111883;28;20031;-77
2022/07/31 06:41:59;;;;;;;33.33;14.27;;;;;;;29.44;44.98;101667.03;5093896;28;20031;-77
2022/07/31 06:44:25;;;;;;;37.38;16.50;;;;;;;28.48;48.22;101672.41;5097253;28;20047;-78
2022/07/31 06:46:50;;;;;;;36.83;14.95;;;;;;;29.87;45.43;101667.38;5116161;28;20027;-77
2022/07/31 06:49:16;;;;;;;29.73;16.05;;;;;;;29.96;45.13;101672.03;5097566;28;20031;-77
2022/07/31 06:51:42;;;;;;;31.77;15.23;;;;;;;29.70;45.10;101671.38;5097790;28;20405;-78
2022/07/31 06:54:08;;;;;;;32.15;15.82;;;;;;;29.56;45.78;101670.59;5097811;28;20114;-77
2022/07/31 06:56:35;;;;;;;33.63;16.90;;;;;;;29.45;45.72;101671.44;5096857;28;20028;-77
2022/07/31 06:59:03;;;;;;;38.40;16.05;;;;;;;29.02;47.04;101657.69;5097605;28;20445;-77
2022/07/31 07:01:28;;;;;;;30.60;15.88;;;;;;;28.17;48.30;101672.78;5097261;28;20096;-78
2022/07/31 07:03:54;;;;;;;30.20;15.88;;;;;;;28.12;49.79;101672.25;5096942;28;20027;-78
2022/07/31 07:06:20;;;;;;;32.90;16.30;;;;;;;28.76;48.31;101661.34;5097520;28;20497;-77
2022/07/31 07:08:45;;;;;;;32.17;16.30;;;;;;;28.86;47.35;101661.53;5097543;28;20515;-77
2022/07/31 07:11:11;;;;;;;28.08;14.85;;;;;;;31.05;42.66;101654.22;5096369;28;20114;-77
2022/07/31 07:13:36;;;;;;;27.77;14.52;;;;;;;30.68;43.24;101661.78;5097348;28;20019;-77
2022/07/31 07:16:02;;;;;;;30.52;16.08;;;;;;;30.17;44.20;101672.16;5097232;28;20023;-77
2022/07/31 07:18:27;;;;;;;27.35;15.35;;;;;;;28.83;46.39;101672.53;5114488;28;20415;-77
2022/07/31 07:20:53;;;;;;;30.05;15.70;;;;;;;28.05;50.25;101679.03;5096933;28;20024;-77
2022/07/31 07:23:20;;;;;;;26.23;15.57;;;;;;;29.10;46.92;101668.75;5097081;28;20475;-77
2022/07/31 07:25:45;;;;;;;33.72;16.90;;;;;;;27.99;50.58;101674.09;5114523;28;20398;-77
2022/07/31 07:28:11;;;;;;;37.78;16.00;;;;;;;28.82;47.57;101660.03;5115582;28;20099;-77
2022/07/31 07:30:36;;;;;;;30.25;15.93;;;;;;;29.86;45.74;101655.75;5097020;28;20031;-77
2022/07/31 07:33:03;;;;;;;27.38;15.75;;;;;;;28.58;48.04;101652.78;5096463;28;20131;-78
2022/07/31 07:35:28;;;;;;;28.40;15.10;;;;;;;29.91;45.37;101648.16;5096983;28;20479;-78
2022/07/31 07:37:54;;;;;;;35.03;17.15;;;;;;;29.55;44.74;101658.13;5115082;28;20049;-77
2022/07/31 07:40:20;;;;;;;33.17;16.52;;;;;;;29.24;47.06;101647.03;5114283;28;20506;-77
2022/07/31 07:42:46;;;;;;;37.05;17.90;;;;;;;29.84;45.87;101646.03;5096241;28;20100;-77
2022/07/31 07:45:11;;;;;;;33.75;18.95;;;;;;;29.71;46.88;101648.84;5096883;28;20034;-78
2022/07/31 07:47:38;;;;;;;33.20;17.95;;;;;;;28.47;50.79;101650.03;5096365;28;20120;-77
2022/07/31 07:50:06;;;;;;;32.42;18.05;;;;;;;29.03;48.71;101648.63;5114903;28;20027;-77
2022/07/31 07:52:32;;;;;;;30.92;19.65;;;;;;;27.92;52.66;101653.00;5096471;28;20479;-77
2022/07/31 07:54:57;;;;;;;37.33;18.55;;;;;;;28.31;53.04;101652.97;5094832;28;20015;-77
2022/07/31 07:57:23;;;;;;;34.13;18.27;;;;;;;27.85;54.78;101659.78;5114793;28;20080;-77
2022/07/31 07:59:48;;;;;;;34.40;19.63;;;;;;;27.05;57.21;101659.84;5095442;28;20534;-77
2022/07/31 08:02:14;;;;;;;41.33;19.75;;;;;;;28.11;53.21;101649.06;5096175;28;20479;-77
2022/07/31 08:04:40;;;;;;;34.13;21.23;;;;;;;27.58;55.27;101658.06;5096363;28;20030;-77
2022/07/31 08:07:06;;;;;;;35.85;19.50;;;;;;;27.51;56.22;101662.13;5113480;28;20051;-77
2022/07/31 08:09:33;;;;;;;39.55;20.50;;;;;;;28.72;53.27;101659.03;5114326;28;20023;-77
2022/07/31 08:11:59;;;;;;;32.90;18.83;;;;;;;27.42;55.67;101662.75;5096082;28;20020;-77
2022/07/31 08:14:24;;;;;;;39.90;19.02;;;;;;;29.94;47.78;101658.69;5095588;28;20027;-77
2022/07/31 08:16:51;;;;;;;37.92;19.63;;;;;;;30.20;46.09;101650.34;5114307;28;20023;-78
2022/07/31 08:19:16;;;;;;;32.50;18.25;;;;;;;29.42;47.31;101654.69;5095886;28;20024;-77
2022/07/31 08:21:42;;;;;;;28.40;19.02;;;;;;;29.67;47.73;101655.44;5094952;28;20022;-77
2022/07/31 08:24:07;;;;;;;27.25;17.85;;;;;;;30.46;45.78;101647.41;5114182;28;20023;-77
2022/07/31 08:29:17;;;;;;;26.40;17.48;;;;;;;28.24;52.48;101644.50;5113763;28;20033;-77
2022/07/31 08:31:42;;;;;;;29.40;18.10;;;;;;;27.82;53.49;101643.91;5095741;28;20438;-77
2022/07/31 08:34:08;;;;;;;23.83;17.33;;;;;;;28.99;50.40;101644.47;5095400;28;20027;-78
2022/07/31 08:36:34;;;;;;;31.23;17.67;;;;;;;29.52;49.00;101634.13;5095094;28;20023;-77
2022/07/31 08:39:02;;;;;;;25.95;17.27;;;;;;;29.56;48.53;101632.91;5095460;28;20499;-78
2022/07/31 08:41:27;;;;;;;26.52;17.23;;;;;;;28.98;50.62;101637.38;5095457;28;20028;-77
2022/07/31 08:43:54;;;;;;;22.50;16.33;;;;;;;29.87;47.63;101640.41;5094565;28;20100;-77
2022/07/31 08:46:21;;;;;;;24.48;16.02;;;;;;;29.59;47.81;101643.47;5095294;28;20555;-77
2022/07/31 08:48:52;;;;;;;24.20;17.15;;;;;;;29.01;50.16;101645.22;5095159;28;20027;-77
2022/07/31 08:51:18;;;;;;;24.08;15.77;;;;;;;28.23;52.77;101647.31;5095024;28;20054;-77
2022/07/31 08:53:47;;;;;;;27.15;15.02;;;;;;;29.15;52.07;101650.38;5094728;28;20114;-77
2022/07/31 08:56:12;;;;;;;22.52;15.93;;;;;;;28.84;49.92;101652.72;5113220;28;20027;-77
2022/07/31 08:58:38;;;;;;;21.13;14.98;;;;;;;28.83;49.83;101644.78;5095182;28;20070;-76
2022/07/31 09:01:03;;;;;;;21.67;15.43;;;;;;;28.92;50.39;101644.94;5113159;28;20024;-77
2022/07/31 09:03:29;;;;;;;22.45;14.95;;;;;;;28.51;51.47;101662.28;5094726;28;20036;-78
2022/07/31 09:05:54;;;;;;;21.23;15.30;;;;;;;28.44;50.71;101655.66;5112747;28;20110;-77
2022/07/31 09:08:20;;;;;;;20.63;16.50;;;;;;;29.24;49.63;101654.22;5113547;28;20035;-77
2022/07/31 09:10:45;;;;;;;22.20;16.23;;;;;;;28.85;49.65;101649.06;5094260;28;20027;-77
2022/07/31 09:13:13;;;;;;;24.13;16.38;;;;;;;28.85;50.54;101643.69;5113052;28;20059;-77
2022/07/31 09:15:39;;;;;;;26.88;17.38;;;;;;;29.67;48.80;101650.06;5094907;28;20015;-77
2022/07/31 09:18:20;;;;;;;27.02;16.52;;;;;;;29.24;48.55;101644.34;5094446;28;20039;-78
2022/07/31 09:21:04;;;;;;;22.50;16.73;;;;;;;30.69;44.73;101637.38;5094907;28;20051;-77
2022/07/31 09:23:31;;;;;;;24.65;18.25;;;;;;;29.77;46.15;101645.66;5112846;28;20027;-77
2022/07/31 09:26:04;;;;;;;31.75;18.25;;;;;;;28.68;49.22;101638.72;5094165;28;20031;-77
2022/07/31 09:28:41;;;;;;;23.55;17.95;;;;;;;28.55;49.34;101642.28;5094878;28;20027;-77
2022/07/31 09:31:09;;;;;;;26.50;17.77;;;;;;;28.27;49.54;101638.94;5094008;28;20059;-77
2022/07/31 09:33:37;;;;;;;27.77;17.73;;;;;;;28.93;49.52;101646.66;5094550;28;20050;-78
2022/07/31 09:36:03;;;;;;;25.83;17.30;;;;;;;30.73;44.12;101638.00;5094893;28;20117;-77
2022/07/31 09:38:41;;;;;;;25.90;18.10;;;;;;;30.87;45.05;101637.72;5112282;28;20035;-77
2022/07/31 09:41:14;;;;;;;23.42;19.23;;;;;;;30.07;46.71;101636.13;5094170;28;20062;-77
2022/07/31 09:43:40;;;;;;;27.55;18.20;;;;;;;29.05;49.72;101641.31;5094338;28;20051;-77
2022/07/31 09:46:07;;;;;;;27.60;18.67;;;;;;;29.48;47.82;101646.09;5093823;28;20088;-77
2022/07/31 09:48:34;;;;;;;28.75;18.50;;;;;;;29.70;49.49;101639.03;5094315;28;20020;-77
2022/07/31 09:51:03;;;;;;;26.45;19.10;;;;;;;29.56;49.23;101649.06;5094212;28;20114;-77
2022/07/31 09:53:55;;;;;;;24.17;18.05;;;;;;;28.52;52.78;101653.25;5093663;28;20054;-76
2022/07/31 09:56:31;;;;;;;26.30;19.75;;;;;;;28.85;51.44;101646.38;5094315;28;20071;-78
2022/07/31 09:58:57;;;;;;;24.33;18.77;;;;;;;29.59;49.78;101647.97;5094617;28;20023;-77
2022/07/31 10:01:23;;;;;;;28.42;17.83;;;;;;;28.08;54.82;101643.88;5093786;28;20050;-77
2022/07/31 10:03:50;;;;;;;28.13;20.65;;;;;;;29.61;48.39;101640.63;5094279;28;20146;-77
2022/07/31 10:06:17;;;;;;;30.17;20.00;;;;;;;29.11;51.87;101648.91;5093934;28;20550;-77
2022/07/31 10:08:45;;;;;;;27.55;19.30;;;;;;;29.30;50.79;101642.16;5093870;28;20364;-77
2022/07/31 10:11:11;;;;;;;27.30;19.85;;;;;;;28.59;53.21;101648.25;5094337;28;20114;-77
2022/07/31 10:13:43;;;;;;;31.95;20.02;;;;;;;28.35;53.92;101650.94;5093534;28;20088;-77
2022/07/31 10:16:09;;;;;;;25.45;17.90;;;;;;;27.73;58.95;101639.19;5094321;28;20024;-78
2022/07/31 10:18:37;;;;;;;23.60;18.00;;;;;;;27.08;62.31;101643.59;5098362;28;20368;-76
2022/07/31 10:21:05;;;;;;;24.90;17.42;;;;;;;28.79;54.36;101637.91;5097836;28;20032;-78
2022/07/31 10:23:32;;;;;;;28.42;17.30;;;;;;;27.57;59.50;101639.38;5098114;28;20023;-77
2022/07/31 10:26:01;;;;;;;26.85;15.68;;;;;;;27.43;61.01;101633.13;5098062;28;20475;-78
2022/07/31 10:28:30;;;;;;;20.80;16.35;;;;;;;27.47;60.00;101633.78;5115666;28;20027;-77
2022/07/31 10:30:56;;;;;;;23.65;15.55;;;;;;;27.58;61.00;101627.69;5098272;28;20027;-77
2022/07/31 10:33:22;;;;;;;24.98;14.80;;;;;;;28.46;55.78;101632.19;5116196;28;20024;-78
2022/07/31 10:36:10;;;;;;;25.63;15.48;;;;;;;29.30;52.60;101626.00;5115895;28;20072;-78
2022/07/31 10:38:44;;;;;;;21.33;14.73;;;;;;;28.02;57.20;101628.22;5097960;28;20023;-76
2022/07/31 10:41:35;;;;;;;22.77;13.65;;;;;;;28.20;56.92;101623.34;5097907;28;20032;-76
2022/07/31 10:44:08;;;;;;;21.80;12.73;;;;;;;28.36;56.80;101625.78;5097735;28;20047;-77
2022/07/31 10:46:33;;;;;;;20.40;13.60;;;;;;;28.16;56.54;101633.44;5115730;28;20034;-77
2022/07/31 10:48:59;;;;;;;24.33;12.98;;;;;;;26.49;65.51;101631.31;5097471;28;20024;-77
2022/07/31 10:51:25;;;;;;;18.83;11.60;;;;;;;26.42;67.95;101630.84;5097767;28;20023;-77
2022/07/31 10:54:00;;;;;;;21.98;13.48;;;;;;;26.26;71.73;101624.75;5097698;28;20043;-76
2022/07/31 10:56:26;;;;;;;17.48;12.50;;;;;;;27.50;61.71;101625.50;5097297;28;20031;-77
2022/07/31 10:58:56;;;;;;;21.35;11.70;;;;;;;27.46;64.21;101613.28;5097409;28;20023;-77
2022/07/31 11:01:24;;;;;;;18.83;11.40;;;;;;;27.55;61.31;101618.00;5097595;28;20168;-79
2022/07/31 11:03:53;;;;;;;20.05;11.13;;;;;;;27.93;59.79;101614.44;5096816;28;20032;-77
2022/07/31 11:06:20;;;;;;;17.75;10.07;;;;;;;28.68;57.37;101609.13;5115667;28;20379;-77
2022/07/31 11:08:54;;;;;;;16.13;10.13;;;;;;;27.62;59.75;101614.91;5115462;28;20023;-77
2022/07/31 11:11:33;;;;;;;14.20;9.27;;;;;;;27.93;58.33;101598.34;5115078;28;20028;-77
2022/07/31 11:13:59;;;;;;;13.15;8.43;;;;;;;27.77;57.63;101608.44;5097086;28;20019;-76
2022/07/31 11:16:25;;;;;;;12.57;8.52;;;;;;;27.93;57.33;101609.06;5097274;28;20035;-77
2022/07/31 11:19:08;;;;;;;15.30;8.52;;;;;;;28.74;53.92;101604.16;5114725;28;20026;-77